Time;durP1;ratioP1;P1;durP2;ratioP2;P2;SDS_P1;SDS_P2;PMS_P1;PMS_P2;Temp;Humidity;BMP_temperature;BMP_pressure;BME280_temperature;BME280_humidity;BME280_pressure;Samples;Min_cycle;Max_cycle;Signal;HPM_P1;HPM_P2
2022/01/17 00:02:18;;;;;;;1.15;1.15;;;;;;;;;;5078244;28;20048;-58
2022/01/17 00:04:44;;;;;;;1.70;1.63;;;;;;;;;;5079941;28;20016;-58
2022/01/17 00:07:09;;;;;;;2.53;2.33;;;;;;;;;;5077563;28;20028;-59
2022/01/17 00:09:34;;;;;;;0.03;0.00;;;;;;;;;;5078982;28;20043;-57
2022/01/17 00:12:00;;;;;;;0.00;0.00;;;;;;;;;;5082842;28;20073;-58
2022/01/17 00:14:32;;;;;;;0.47;0.47;;;;;;;;;;5082755;28;20035;-59
2022/01/17 00:17:35;;;;;;;0.00;0.00;;;;;;;;;;5078721;28;20017;-58
2022/01/17 00:19:53;;;;;;;0.77;0.77;;;;;;;;;;5076007;28;20036;-59
2022/01/17 00:22:20;;;;;;;0.22;0.22;;;;;;;;;;5076922;28;20373;-57
2022/01/17 00:24:45;;;;;;;0.98;0.20;;;;;;;;;;5078554;28;20023;-58
2022/01/17 00:27:11;;;;;;;1.67;1.58;;;;;;;;;;5077939;28;20029;-59
2022/01/17 00:29:36;;;;;;;0.25;0.25;;;;;;;;;;5081539;28;20020;-59
2022/01/17 00:32:01;;;;;;;0.22;0.22;;;;;;;;;;5077177;28;20093;-58
2022/01/17 00:34:27;;;;;;;4.57;2.05;;;;;;;;;;5077713;28;20029;-58
2022/01/17 00:36:52;;;;;;;2.35;2.15;;;;;;;;;;5081575;28;20358;-58
2022/01/17 00:39:18;;;;;;;6.35;2.28;;;;;;;;;;5083021;28;20091;-59
2022/01/17 00:41:43;;;;;;;1.48;1.10;;;;;;;;;;5079499;28;20349;-58
2022/01/17 00:44:08;;;;;;;2.42;1.92;;;;;;;;;;5077643;28;20562;-59
2022/01/17 00:46:34;;;;;;;0.90;0.90;;;;;;;;;;5081527;28;20036;-59
2022/01/17 00:48:59;;;;;;;4.35;1.90;;;;;;;;;;5074619;28;20653;-60
2022/01/17 00:51:24;;;;;;;1.73;1.70;;;;;;;;;;5076934;28;20430;-59
2022/01/17 00:53:50;;;;;;;0.73;0.73;;;;;;;;;;5075920;28;20044;-57
2022/01/17 00:56:15;;;;;;;0.55;0.55;;;;;;;;;;5084576;28;20033;-58
2022/01/17 00:58:41;;;;;;;1.38;1.27;;;;;;;;;;5075616;28;20468;-58
2022/01/17 01:01:06;;;;;;;0.05;0.05;;;;;;;;;;5076839;28;20385;-57
2022/01/17 01:03:31;;;;;;;0.90;0.90;;;;;;;;;;5080273;28;20350;-57
2022/01/17 01:05:57;;;;;;;0.30;0.30;;;;;;;;;;5080297;28;20491;-58
2022/01/17 01:08:22;;;;;;;0.10;0.10;;;;;;;;;;5075558;28;20096;-58
2022/01/17 01:10:47;;;;;;;1.98;1.88;;;;;;;;;;5081993;28;20033;-59
2022/01/17 01:13:12;;;;;;;1.70;1.60;;;;;;;;;;5079498;28;20019;-58
2022/01/17 01:18:15;;;;;;;0.00;0.00;;;;;;;;;;5080343;28;20512;-59
2022/01/17 01:28:38;;;;;;;0.00;0.00;;;;;;;;;;5078956;28;20118;-59
2022/01/17 01:31:10;;;;;;;1.35;1.25;;;;;;;;;;5079179;28;20020;-58
2022/01/17 01:33:39;;;;;;;0.00;0.00;;;;;;;;;;5079402;28;20084;-58
2022/01/17 01:36:14;;;;;;;0.35;0.35;;;;;;;;;;5072669;28;20415;-59
2022/01/17 01:38:41;;;;;;;0.10;0.10;;;;;;;;;;5074126;28;20034;-59
2022/01/17 01:41:06;;;;;;;2.22;2.08;;;;;;;;;;5077008;28;20017;-58
2022/01/17 01:43:31;;;;;;;0.85;0.50;;;;;;;;;;5080170;28;20025;-58
2022/01/17 01:46:00;;;;;;;0.00;0.00;;;;;;;;;;5074611;28;20044;-59
2022/01/17 01:48:26;;;;;;;1.02;0.95;;;;;;;;;;5074864;28;20036;-58
2022/01/17 01:50:51;;;;;;;0.93;0.93;;;;;;;;;;5077618;28;20013;-60
2022/01/17 01:53:16;;;;;;;5.30;2.13;;;;;;;;;;5077236;28;20361;-59
2022/01/17 01:55:42;;;;;;;0.00;0.00;;;;;;;;;;5080366;28;20310;-59
2022/01/17 01:58:09;;;;;;;0.77;0.77;;;;;;;;;;5076787;28;20029;-58
2022/01/17 02:00:34;;;;;;;0.30;0.20;;;;;;;;;;5078730;28;20048;-58
2022/01/17 02:02:59;;;;;;;1.00;0.55;;;;;;;;;;5075414;28;20047;-58
2022/01/17 02:05:25;;;;;;;1.20;1.02;;;;;;;;;;5076904;28;20028;-59
2022/01/17 02:07:50;;;;;;;0.65;0.65;;;;;;;;;;5079942;28;20033;-58
2022/01/17 02:10:15;;;;;;;4.53;2.97;;;;;;;;;;5081147;28;20024;-59
2022/01/17 02:12:40;;;;;;;1.27;1.10;;;;;;;;;;5081889;28;20107;-58
2022/01/17 02:15:10;;;;;;;0.75;0.75;;;;;;;;;;5079649;28;20152;-59
2022/01/17 02:17:40;;;;;;;1.55;1.55;;;;;;;;;;5075343;28;20039;-57
2022/01/17 02:20:09;;;;;;;0.10;0.10;;;;;;;;;;5083026;28;20017;-58
2022/01/17 02:22:34;;;;;;;2.07;1.67;;;;;;;;;;5084925;28;20020;-58
2022/01/17 02:25:00;;;;;;;0.63;0.63;;;;;;;;;;5084801;28;20302;-59
2022/01/17 02:27:25;;;;;;;3.45;1.33;;;;;;;;;;5079332;28;20389;-59
2022/01/17 02:29:50;;;;;;;1.90;1.08;;;;;;;;;;5083455;28;20360;-58
2022/01/17 02:32:15;;;;;;;0.75;0.70;;;;;;;;;;5084462;28;20388;-59
2022/01/17 02:34:41;;;;;;;1.73;1.63;;;;;;;;;;5080203;28;20030;-59
2022/01/17 02:37:07;;;;;;;1.08;1.08;;;;;;;;;;5082564;28;20094;-59
2022/01/17 02:39:32;;;;;;;0.63;0.63;;;;;;;;;;5081689;28;20513;-58
2022/01/17 02:42:00;;;;;;;1.70;1.60;;;;;;;;;;5085120;28;20073;-58
2022/01/17 02:44:25;;;;;;;3.13;1.92;;;;;;;;;;5076429;28;20019;-59
2022/01/17 02:46:51;;;;;;;0.00;0.00;;;;;;;;;;5085505;28;20111;-58
2022/01/17 02:49:16;;;;;;;0.20;0.20;;;;;;;;;;5082122;28;20023;-58
2022/01/17 02:51:43;;;;;;;0.88;0.88;;;;;;;;;;5084868;28;20025;-57
2022/01/17 02:54:09;;;;;;;3.03;2.78;;;;;;;;;;5076360;28;20017;-57
2022/01/17 02:56:34;;;;;;;0.20;0.20;;;;;;;;;;5083756;28;20039;-58
2022/01/17 02:58:59;;;;;;;1.55;1.45;;;;;;;;;;5082585;28;20032;-58
2022/01/17 03:01:25;;;;;;;0.77;0.77;;;;;;;;;;5080926;28;20012;-58
2022/01/17 03:03:51;;;;;;;0.98;0.98;;;;;;;;;;5085799;28;20062;-56
2022/01/17 03:06:18;;;;;;;0.13;0.13;;;;;;;;;;5081585;28;20020;-57
2022/01/17 03:08:43;;;;;;;1.55;0.98;;;;;;;;;;5078812;28;20036;-57
2022/01/17 03:11:10;;;;;;;0.00;0.00;;;;;;;;;;5083079;28;20017;-57
2022/01/17 03:13:37;;;;;;;1.65;1.65;;;;;;;;;;5076928;28;20048;-58
2022/01/17 03:16:29;;;;;;;2.40;2.22;;;;;;;;;;5077439;28;20020;-59
2022/01/17 03:18:54;;;;;;;6.00;5.22;;;;;;;;;;5077617;28;20032;-59
2022/01/17 03:21:20;;;;;;;1.08;0.45;;;;;;;;;;5084425;28;20515;-58
2022/01/17 03:23:46;;;;;;;1.30;0.32;;;;;;;;;;5082407;28;20507;-58
2022/01/17 03:26:12;;;;;;;0.43;0.43;;;;;;;;;;5081931;28;20013;-57
2022/01/17 03:28:38;;;;;;;1.85;1.75;;;;;;;;;;5080305;28;20421;-58
2022/01/17 03:31:04;;;;;;;0.30;0.30;;;;;;;;;;5082237;28;20028;-59
2022/01/17 03:33:29;;;;;;;2.28;0.65;;;;;;;;;;5082595;28;20035;-59
2022/01/17 03:35:55;;;;;;;2.40;2.13;;;;;;;;;;5081870;28;20457;-58
2022/01/17 03:38:21;;;;;;;0.52;0.52;;;;;;;;;;5080282;28;20092;-58
2022/01/17 03:40:47;;;;;;;1.10;1.05;;;;;;;;;;5074715;28;20463;-57
2022/01/17 03:43:13;;;;;;;1.08;1.08;;;;;;;;;;5078896;28;20258;-58
2022/01/17 03:45:39;;;;;;;1.35;0.77;;;;;;;;;;5076015;28;20040;-58
2022/01/17 03:48:04;;;;;;;1.27;1.17;;;;;;;;;;5081361;28;20028;-58
2022/01/17 03:50:29;;;;;;;1.10;1.10;;;;;;;;;;5087237;28;20028;-58
2022/01/17 03:52:55;;;;;;;1.48;1.48;;;;;;;;;;5078882;28;20035;-58
2022/01/17 03:55:21;;;;;;;0.30;0.30;;;;;;;;;;5078604;28;20025;-58
2022/01/17 03:57:47;;;;;;;1.73;1.67;;;;;;;;;;5082779;28;20031;-57
2022/01/17 04:00:14;;;;;;;3.05;2.05;;;;;;;;;;5084540;28;20449;-57
2022/01/17 04:02:40;;;;;;;2.20;2.08;;;;;;;;;;5084947;28;20016;-59
2022/01/17 04:05:05;;;;;;;1.85;1.75;;;;;;;;;;5079922;28;20012;-59
2022/01/17 04:07:30;;;;;;;1.23;0.90;;;;;;;;;;5077902;28;20016;-58
2022/01/17 04:09:55;;;;;;;0.25;0.25;;;;;;;;;;5079183;28;20487;-58
2022/01/17 04:12:21;;;;;;;0.30;0.30;;;;;;;;;;5079146;28;20033;-59
2022/01/17 04:14:46;;;;;;;0.35;0.35;;;;;;;;;;5079066;28;20034;-59
2022/01/17 04:17:11;;;;;;;1.33;1.33;;;;;;;;;;5077957;28;20052;-58
2022/01/17 04:19:36;;;;;;;1.02;1.02;;;;;;;;;;5077677;28;20386;-60
2022/01/17 04:22:02;;;;;;;0.95;0.95;;;;;;;;;;5074712;28;20484;-57
2022/01/17 04:24:27;;;;;;;0.30;0.30;;;;;;;;;;5084437;28;20498;-59
2022/01/17 04:26:52;;;;;;;1.42;1.35;;;;;;;;;;5076845;28;20366;-57
2022/01/17 04:29:19;;;;;;;0.00;0.00;;;;;;;;;;5082590;28;20024;-58
2022/01/17 04:31:44;;;;;;;2.38;0.88;;;;;;;;;;5077395;28;20048;-58
2022/01/17 04:34:09;;;;;;;1.50;1.45;;;;;;;;;;5085929;28;20043;-58
2022/01/17 04:36:35;;;;;;;0.52;0.52;;;;;;;;;;5082534;28;20020;-59
2022/01/17 04:39:00;;;;;;;0.05;0.05;;;;;;;;;;5075300;28;20028;-59
2022/01/17 04:41:36;;;;;;;0.45;0.45;;;;;;;;;;5079805;28;20024;-56
2022/01/17 04:45:07;;;;;;;0.05;0.05;;;;;;;;;;5079122;28;20024;-57
2022/01/17 04:46:46;;;;;;;2.47;2.35;;;;;;;;;;5076572;28;20048;-58
2022/01/17 04:49:12;;;;;;;0.32;0.32;;;;;;;;;;5081509;28;20541;-57
2022/01/17 04:51:38;;;;;;;0.00;0.00;;;;;;;;;;5077389;28;20025;-55
2022/01/17 04:54:39;;;;;;;0.05;0.05;;;;;;;;;;5084166;28;20023;-59
2022/01/17 04:56:48;;;;;;;0.28;0.28;;;;;;;;;;5078325;28;20040;-59
2022/01/17 04:59:14;;;;;;;2.05;1.98;;;;;;;;;;5084327;28;20384;-58
2022/01/17 05:01:39;;;;;;;0.80;0.80;;;;;;;;;;5078970;28;20548;-58
2022/01/17 05:04:04;;;;;;;0.98;0.98;;;;;;;;;;5077165;28;20353;-57
2022/01/17 05:06:29;;;;;;;1.00;1.00;;;;;;;;;;5085072;28;20016;-59
2022/01/17 05:08:54;;;;;;;1.95;1.45;;;;;;;;;;5082089;28;20028;-57
2022/01/17 05:11:24;;;;;;;0.32;0.32;;;;;;;;;;5080863;28;20024;-58
2022/01/17 05:13:49;;;;;;;3.20;1.45;;;;;;;;;;5077458;28;20040;-57
2022/01/17 05:16:16;;;;;;;0.25;0.25;;;;;;;;;;5077156;28;20056;-58
2022/01/17 05:21:06;;;;;;;0.17;0.17;;;;;;;;;;5077239;28;20386;-58
2022/01/17 05:23:31;;;;;;;0.80;0.70;;;;;;;;;;5080698;28;20019;-59
2022/01/17 05:25:57;;;;;;;0.00;0.00;;;;;;;;;;5080211;28;20119;-57
2022/01/17 05:28:22;;;;;;;2.00;1.63;;;;;;;;;;5080034;28;20040;-59
2022/01/17 05:30:48;;;;;;;2.25;2.05;;;;;;;;;;5076294;28;20035;-58
2022/01/17 05:33:13;;;;;;;1.15;0.47;;;;;;;;;;5074994;28;20476;-59
2022/01/17 05:35:38;;;;;;;0.38;0.38;;;;;;;;;;5079177;28;20070;-58
2022/01/17 05:38:03;;;;;;;0.35;0.35;;;;;;;;;;5077199;28;20081;-59
2022/01/17 05:40:31;;;;;;;0.15;0.15;;;;;;;;;;5081550;28;20020;-59
2022/01/17 05:42:57;;;;;;;1.38;1.15;;;;;;;;;;5077181;28;20504;-58
2022/01/17 05:45:22;;;;;;;1.00;0.38;;;;;;;;;;5077237;28;20147;-55
2022/01/17 05:47:47;;;;;;;0.80;0.47;;;;;;;;;;5074357;28;20039;-55
2022/01/17 05:50:13;;;;;;;0.20;0.20;;;;;;;;;;5081033;28;20036;-56
2022/01/17 05:52:39;;;;;;;0.00;0.00;;;;;;;;;;5078967;28;20044;-56
2022/01/17 05:55:06;;;;;;;0.17;0.17;;;;;;;;;;5076911;28;20021;-54
2022/01/17 05:57:31;;;;;;;0.22;0.22;;;;;;;;;;5078521;28;20121;-56
2022/01/17 05:59:58;;;;;;;2.88;2.70;;;;;;;;;;5079480;28;20048;-56
2022/01/17 06:02:24;;;;;;;1.23;0.88;;;;;;;;;;5076506;28;20099;-54
2022/01/17 06:04:52;;;;;;;0.00;0.00;;;;;;;;;;5075488;28;20135;-57
2022/01/17 06:07:17;;;;;;;0.03;0.03;;;;;;;;;;5076957;28;20047;-56
2022/01/17 06:09:43;;;;;;;0.50;0.47;;;;;;;;;;5075857;28;20059;-55
2022/01/17 06:12:08;;;;;;;2.17;1.33;;;;;;;;;;5079370;28;20028;-54
2022/01/17 06:14:34;;;;;;;0.10;0.10;;;;;;;;;;5074167;28;20021;-56
2022/01/17 06:16:59;;;;;;;0.00;0.00;;;;;;;;;;5079247;28;20049;-55
2022/01/17 06:19:24;;;;;;;0.10;0.10;;;;;;;;;;5076002;28;20051;-55
2022/01/17 06:21:50;;;;;;;0.00;0.00;;;;;;;;;;5074647;28;20029;-56
2022/01/17 06:24:15;;;;;;;0.28;0.28;;;;;;;;;;5077680;28;20051;-56
2022/01/17 06:26:41;;;;;;;0.00;0.00;;;;;;;;;;5081283;28;20481;-56
2022/01/17 06:29:08;;;;;;;0.00;0.00;;;;;;;;;;5074582;28;20153;-55
2022/01/17 06:31:34;;;;;;;0.08;0.08;;;;;;;;;;5080559;28;20038;-57
2022/01/17 06:33:59;;;;;;;0.00;0.00;;;;;;;;;;5073988;28;20513;-57
2022/01/17 06:36:24;;;;;;;8.55;2.40;;;;;;;;;;5074071;28;20115;-57
2022/01/17 06:38:49;;;;;;;0.45;0.45;;;;;;;;;;5077413;28;20020;-56
2022/01/17 06:41:16;;;;;;;0.00;0.00;;;;;;;;;;5080993;28;20496;-55
2022/01/17 06:43:41;;;;;;;0.30;0.30;;;;;;;;;;5080881;28;20571;-57
2022/01/17 06:46:06;;;;;;;0.00;0.00;;;;;;;;;;5076205;28;20072;-55
2022/01/17 06:48:31;;;;;;;1.83;1.75;;;;;;;;;;5078042;28;20111;-55
2022/01/17 06:50:57;;;;;;;0.15;0.15;;;;;;;;;;5074227;28;20167;-57
2022/01/17 06:53:26;;;;;;;0.75;0.75;;;;;;;;;;5076388;28;20044;-54
2022/01/17 06:55:51;;;;;;;0.20;0.20;;;;;;;;;;5076570;28;20028;-53
2022/01/17 06:58:16;;;;;;;0.00;0.00;;;;;;;;;;5079294;28;20421;-55
2022/01/17 07:00:42;;;;;;;0.70;0.70;;;;;;;;;;5076368;28;20460;-56
2022/01/17 07:03:07;;;;;;;0.43;0.43;;;;;;;;;;5073586;28;20012;-56
2022/01/17 07:05:32;;;;;;;0.52;0.52;;;;;;;;;;5078685;28;20676;-58
2022/01/17 07:07:57;;;;;;;0.00;0.00;;;;;;;;;;5083057;28;20020;-57
2022/01/17 07:10:25;;;;;;;0.10;0.10;;;;;;;;;;5081469;28;20469;-55
2022/01/17 07:12:50;;;;;;;0.10;0.10;;;;;;;;;;5080759;28;20025;-55
2022/01/17 07:15:15;;;;;;;0.60;0.60;;;;;;;;;;5075161;28;20033;-57
2022/01/17 07:17:40;;;;;;;3.00;0.60;;;;;;;;;;5081009;28;20507;-58
2022/01/17 07:20:06;;;;;;;0.10;0.10;;;;;;;;;;5081277;28;20028;-59
2022/01/17 07:22:32;;;;;;;0.55;0.55;;;;;;;;;;5085516;28;20047;-58
2022/01/17 07:24:58;;;;;;;0.47;0.47;;;;;;;;;;5084058;28;20440;-56
2022/01/17 07:27:24;;;;;;;0.00;0.00;;;;;;;;;;5082335;28;20411;-55
2022/01/17 07:29:49;;;;;;;0.00;0.00;;;;;;;;;;5082923;28;20017;-57
2022/01/17 07:32:15;;;;;;;0.00;0.00;;;;;;;;;;5078931;28;20027;-56
2022/01/17 07:34:40;;;;;;;0.88;0.45;;;;;;;;;;5085098;28;20027;-56
2022/01/17 07:37:05;;;;;;;0.00;0.00;;;;;;;;;;5079215;28;20055;-56
2022/01/17 07:39:30;;;;;;;0.60;0.60;;;;;;;;;;5081939;28;20031;-57
2022/01/17 07:41:56;;;;;;;0.43;0.43;;;;;;;;;;5080010;28;20039;-56
2022/01/17 07:44:23;;;;;;;0.00;0.00;;;;;;;;;;5078130;28;20376;-55
2022/01/17 07:46:54;;;;;;;0.00;0.00;;;;;;;;;;5078144;28;20051;-54
2022/01/17 07:49:19;;;;;;;0.00;0.00;;;;;;;;;;5084441;28;20031;-49
2022/01/17 07:51:47;;;;;;;0.00;0.00;;;;;;;;;;5080768;28;20379;-53
2022/01/17 07:54:14;;;;;;;0.00;0.00;;;;;;;;;;5077802;28;20028;-54
2022/01/17 07:56:40;;;;;;;0.22;0.22;;;;;;;;;;5078580;28;20020;-55
2022/01/17 07:59:09;;;;;;;0.60;0.30;;;;;;;;;;5084581;28;20483;-54
2022/01/17 08:01:35;;;;;;;0.00;0.00;;;;;;;;;;5078601;28;20047;-55
2022/01/17 08:04:00;;;;;;;0.00;0.00;;;;;;;;;;5079026;28;20040;-54
2022/01/17 08:06:25;;;;;;;0.90;0.90;;;;;;;;;;5082971;28;20035;-55
2022/01/17 08:08:51;;;;;;;0.43;0.43;;;;;;;;;;5077000;28;20028;-55
2022/01/17 08:11:16;;;;;;;0.00;0.00;;;;;;;;;;5084017;28;20020;-55
2022/01/17 08:13:41;;;;;;;0.00;0.00;;;;;;;;;;5080069;28;20020;-56
2022/01/17 08:16:07;;;;;;;0.00;0.00;;;;;;;;;;5077135;28;20016;-53
2022/01/17 08:18:32;;;;;;;0.63;0.63;;;;;;;;;;5082525;28;20115;-55
2022/01/17 08:20:58;;;;;;;0.73;0.20;;;;;;;;;;5083026;28;20031;-53
2022/01/17 08:23:23;;;;;;;0.00;0.00;;;;;;;;;;5079952;28;20047;-54
2022/01/17 08:25:49;;;;;;;0.00;0.00;;;;;;;;;;5081935;28;20380;-55
2022/01/17 08:28:14;;;;;;;0.47;0.47;;;;;;;;;;5078668;28;20086;-55
2022/01/17 08:30:39;;;;;;;1.25;0.98;;;;;;;;;;5078876;28;20093;-55
2022/01/17 08:33:04;;;;;;;0.75;0.75;;;;;;;;;;5088216;28;20472;-56
2022/01/17 08:35:30;;;;;;;0.70;0.25;;;;;;;;;;5077097;28;20120;-56
2022/01/17 08:37:55;;;;;;;0.57;0.57;;;;;;;;;;5079659;28;20024;-55
2022/01/17 08:40:21;;;;;;;0.15;0.15;;;;;;;;;;5083931;28;20016;-56
2022/01/17 08:42:47;;;;;;;2.63;1.65;;;;;;;;;;5075260;28;20024;-57
2022/01/17 08:45:13;;;;;;;0.82;0.68;;;;;;;;;;5081427;28;20020;-54
2022/01/17 08:47:38;;;;;;;0.00;0.00;;;;;;;;;;5081631;28;20090;-56
2022/01/17 08:50:05;;;;;;;0.00;0.00;;;;;;;;;;5080232;28;20464;-56
2022/01/17 08:52:30;;;;;;;0.00;0.00;;;;;;;;;;5081784;28;20024;-53
2022/01/17 08:54:55;;;;;;;0.00;0.00;;;;;;;;;;5078370;28;20106;-56
2022/01/17 08:57:20;;;;;;;0.05;0.05;;;;;;;;;;5074223;28;20158;-56
2022/01/17 08:59:46;;;;;;;0.17;0.17;;;;;;;;;;5076883;28;20021;-56
2022/01/17 09:02:12;;;;;;;0.55;0.55;;;;;;;;;;5079367;28;20131;-58
2022/01/17 09:04:40;;;;;;;0.00;0.00;;;;;;;;;;5080372;28;20020;-58
2022/01/17 09:07:15;;;;;;;1.97;1.80;;;;;;;;;;5070214;28;20074;-57
2022/01/17 09:09:41;;;;;;;0.00;0.00;;;;;;;;;;5079412;28;20480;-57
2022/01/17 09:12:07;;;;;;;0.00;0.00;;;;;;;;;;5075362;28;20013;-57
2022/01/17 09:14:33;;;;;;;0.00;0.00;;;;;;;;;;5079758;28;20473;-57
2022/01/17 09:16:58;;;;;;;0.00;0.00;;;;;;;;;;5081673;28;20099;-58
2022/01/17 09:19:23;;;;;;;0.05;0.05;;;;;;;;;;5080835;28;20372;-56
2022/01/17 09:21:49;;;;;;;0.80;0.80;;;;;;;;;;5080184;28;20123;-56
2022/01/17 09:24:14;;;;;;;0.10;0.10;;;;;;;;;;5078562;28;20506;-56
2022/01/17 09:26:39;;;;;;;0.00;0.00;;;;;;;;;;5074614;28;20039;-56
2022/01/17 09:29:05;;;;;;;0.08;0.08;;;;;;;;;;5075127;28;20023;-57
2022/01/17 09:31:30;;;;;;;0.65;0.65;;;;;;;;;;5078363;28;20175;-55
2022/01/17 09:33:55;;;;;;;0.00;0.00;;;;;;;;;;5082886;28;20023;-56
2022/01/17 09:36:21;;;;;;;0.05;0.05;;;;;;;;;;5078795;28;20020;-57
2022/01/17 09:38:46;;;;;;;1.30;0.90;;;;;;;;;;5082844;28;20086;-57
2022/01/17 09:41:11;;;;;;;0.00;0.00;;;;;;;;;;5079083;28;20039;-55
2022/01/17 09:43:37;;;;;;;0.10;0.10;;;;;;;;;;5080871;28;20472;-56
2022/01/17 09:46:02;;;;;;;0.20;0.20;;;;;;;;;;5075208;28;20130;-57
2022/01/17 09:48:35;;;;;;;0.22;0.22;;;;;;;;;;5078209;28;20122;-58
2022/01/17 09:51:40;;;;;;;0.30;0.28;;;;;;;;;;5076113;28;20040;-57
2022/01/17 09:53:58;;;;;;;0.00;0.00;;;;;;;;;;5072318;28;20404;-56
2022/01/17 09:56:25;;;;;;;0.00;0.00;;;;;;;;;;5076604;28;20452;-56
2022/01/17 09:58:50;;;;;;;0.00;0.00;;;;;;;;;;5073726;28;20020;-56
2022/01/17 10:01:15;;;;;;;0.00;0.00;;;;;;;;;;5072921;28;20377;-57
2022/01/17 10:03:40;;;;;;;1.67;0.35;;;;;;;;;;5074245;28;20373;-57
2022/01/17 10:06:06;;;;;;;1.33;1.33;;;;;;;;;;5078446;28;20016;-56
2022/01/17 10:08:31;;;;;;;0.75;0.75;;;;;;;;;;5074879;28;20807;-57
2022/01/17 10:10:59;;;;;;;0.38;0.38;;;;;;;;;;5073629;28;20056;-57
2022/01/17 10:13:30;;;;;;;0.52;0.52;;;;;;;;;;5074035;28;20068;-55
2022/01/17 10:16:07;;;;;;;0.38;0.38;;;;;;;;;;5080702;28;20127;-56
2022/01/17 10:18:34;;;;;;;1.45;1.35;;;;;;;;;;5085081;28;20039;-58
2022/01/17 10:21:05;;;;;;;0.08;0.08;;;;;;;;;;5080458;28;20028;-58
2022/01/17 10:24:22;;;;;;;2.58;2.47;;;;;;;;;;5074085;28;20024;-57
2022/01/17 10:37:13;;;;;;;0.00;0.00;;;;;;;;;;5074731;28;20082;-56
2022/01/17 10:39:50;;;;;;;0.00;0.00;;;;;;;;;;5081036;28;20024;-57
2022/01/17 10:42:22;;;;;;;1.00;1.00;;;;;;;;;;5080214;28;20032;-57
2022/01/17 10:44:47;;;;;;;0.00;0.00;;;;;;;;;;5082261;28;20023;-56
2022/01/17 10:47:19;;;;;;;0.28;0.28;;;;;;;;;;5082214;28;20654;-56
2022/01/17 10:49:52;;;;;;;0.35;0.35;;;;;;;;;;5081010;28;20032;-56
2022/01/17 10:52:49;;;;;;;2.97;1.23;;;;;;;;;;5081680;28;20012;-56
2022/01/17 10:55:17;;;;;;;0.20;0.20;;;;;;;;;;5076294;28;20024;-57
2022/01/17 10:57:45;;;;;;;0.00;0.00;;;;;;;;;;5082784;28;20016;-57
2022/01/17 11:00:34;;;;;;;1.30;0.45;;;;;;;;;;5078550;28;20028;-57
2022/01/17 11:03:00;;;;;;;0.63;0.63;;;;;;;;;;5075939;28;20038;-56
2022/01/17 11:05:28;;;;;;;0.00;0.00;;;;;;;;;;5080509;28;20031;-56
2022/01/17 11:07:55;;;;;;;4.40;1.60;;;;;;;;;;5083635;28;20034;-57
2022/01/17 11:10:28;;;;;;;0.15;0.15;;;;;;;;;;5083175;28;20048;-58
2022/01/17 11:12:54;;;;;;;4.65;4.47;;;;;;;;;;5085984;28;20446;-56
2022/01/17 11:15:20;;;;;;;1.33;1.23;;;;;;;;;;5075932;28;20028;-57
2022/01/17 11:17:50;;;;;;;0.38;0.38;;;;;;;;;;5076823;28;20486;-57
2022/01/17 11:20:15;;;;;;;0.38;0.38;;;;;;;;;;5081262;28;20865;-58
2022/01/17 11:22:42;;;;;;;0.70;0.70;;;;;;;;;;5080787;28;20024;-57
2022/01/17 11:25:11;;;;;;;0.00;0.00;;;;;;;;;;5084949;28;20055;-56
2022/01/17 11:27:37;;;;;;;1.50;1.23;;;;;;;;;;5078905;28;20457;-56
2022/01/17 11:30:03;;;;;;;0.60;0.60;;;;;;;;;;5082777;28;20073;-57
2022/01/17 11:32:28;;;;;;;0.98;0.88;;;;;;;;;;5077659;28;20052;-58
2022/01/17 11:34:57;;;;;;;1.15;1.05;;;;;;;;;;5079432;28;20020;-57
2022/01/17 11:37:23;;;;;;;1.38;1.27;;;;;;;;;;5082742;28;20087;-56
2022/01/17 11:39:52;;;;;;;0.00;0.00;;;;;;;;;;5082197;28;20104;-58
2022/01/17 11:42:50;;;;;;;1.40;1.35;;;;;;;;;;5080322;28;20021;-58
2022/01/17 11:45:21;;;;;;;0.75;0.75;;;;;;;;;;5075946;28;20046;-60
2022/01/17 11:47:49;;;;;;;0.08;0.08;;;;;;;;;;5077310;28;20029;-58
2022/01/17 11:50:27;;;;;;;1.65;1.00;;;;;;;;;;5080852;28;20020;-56
2022/01/17 11:52:52;;;;;;;0.00;0.00;;;;;;;;;;5078530;28;20027;-55
2022/01/17 11:55:36;;;;;;;1.13;1.00;;;;;;;;;;5078194;28;20024;-58
2022/01/17 11:58:21;;;;;;;2.05;1.92;;;;;;;;;;5082430;28;20610;-57
2022/01/17 12:00:47;;;;;;;0.20;0.20;;;;;;;;;;5076350;28;20056;-58
2022/01/17 12:03:16;;;;;;;1.45;1.45;;;;;;;;;;5080081;28;20476;-56
2022/01/17 12:05:42;;;;;;;1.35;0.77;;;;;;;;;;5079242;28;20016;-57
2022/01/17 12:08:09;;;;;;;1.25;1.10;;;;;;;;;;5077195;28;20024;-57
2022/01/17 12:10:57;;;;;;;1.85;1.48;;;;;;;;;;5079154;28;20441;-58
2022/01/17 12:13:34;;;;;;;2.75;1.85;;;;;;;;;;5077809;28;20035;-57
2022/01/17 12:16:13;;;;;;;0.00;0.00;;;;;;;;;;5087547;28;20089;-57
2022/01/17 12:18:48;;;;;;;1.77;0.63;;;;;;;;;;5082729;28;20016;-57
2022/01/17 12:21:32;;;;;;;0.28;0.28;;;;;;;;;;5073425;28;20087;-57
2022/01/17 12:24:16;;;;;;;2.90;2.70;;;;;;;;;;5080286;28;20020;-57
2022/01/17 12:27:06;;;;;;;0.43;0.43;;;;;;;;;;5082739;28;20028;-58
2022/01/17 12:29:34;;;;;;;0.00;0.00;;;;;;;;;;5079254;28;20024;-58
2022/01/17 12:31:59;;;;;;;0.55;0.35;;;;;;;;;;5080648;28;20111;-58
2022/01/17 12:34:25;;;;;;;2.40;0.85;;;;;;;;;;5082495;28;20092;-58
2022/01/17 12:36:55;;;;;;;0.00;0.00;;;;;;;;;;5075743;28;20453;-57
2022/01/17 12:39:22;;;;;;;0.10;0.10;;;;;;;;;;5078752;28;20529;-56
2022/01/17 12:41:58;;;;;;;0.00;0.00;;;;;;;;;;5081626;28;20020;-58
2022/01/17 12:44:27;;;;;;;0.10;0.10;;;;;;;;;;5083894;28;20031;-58
2022/01/17 12:46:54;;;;;;;2.28;0.35;;;;;;;;;;5074169;28;20093;-58
2022/01/17 12:49:20;;;;;;;0.28;0.28;;;;;;;;;;5079931;28;20044;-57
2022/01/17 12:51:52;;;;;;;0.00;0.00;;;;;;;;;;5081026;28;20025;-56
2022/01/17 12:54:21;;;;;;;0.00;0.00;;;;;;;;;;5077746;28;20020;-58
2022/01/17 12:56:48;;;;;;;0.00;0.00;;;;;;;;;;5082645;28;20028;-58
2022/01/17 12:59:16;;;;;;;0.47;0.47;;;;;;;;;;5082509;28;20082;-58
2022/01/17 13:01:46;;;;;;;0.00;0.00;;;;;;;;;;5083742;28;20028;-58
2022/01/17 13:04:12;;;;;;;0.22;0.22;;;;;;;;;;5079938;28;20077;-57
2022/01/17 13:06:38;;;;;;;0.00;0.00;;;;;;;;;;5073655;28;20028;-58
2022/01/17 13:09:08;;;;;;;0.35;0.35;;;;;;;;;;5081193;28;20024;-58
2022/01/17 13:11:37;;;;;;;0.00;0.00;;;;;;;;;;5076530;28;20557;-58
2022/01/17 13:14:02;;;;;;;0.10;0.10;;;;;;;;;;5079494;28;20031;-59
2022/01/17 13:16:31;;;;;;;0.85;0.85;;;;;;;;;;5076994;28;20023;-57
2022/01/17 13:18:56;;;;;;;0.00;0.00;;;;;;;;;;5077122;28;20036;-57
2022/01/17 13:21:21;;;;;;;0.00;0.00;;;;;;;;;;5082249;28;20034;-56
2022/01/17 13:23:59;;;;;;;0.30;0.30;;;;;;;;;;5073123;28;20024;-57
2022/01/17 13:26:24;;;;;;;0.00;0.00;;;;;;;;;;5079351;28;20024;-58
2022/01/17 13:28:50;;;;;;;1.10;1.00;;;;;;;;;;5080307;28;20082;-56
2022/01/17 13:31:19;;;;;;;0.15;0.15;;;;;;;;;;5077594;28;20408;-58
2022/01/17 13:33:45;;;;;;;0.38;0.38;;;;;;;;;;5078605;28;20016;-58
2022/01/17 13:36:10;;;;;;;0.10;0.10;;;;;;;;;;5081918;28;20020;-58
2022/01/17 13:38:35;;;;;;;0.00;0.00;;;;;;;;;;5081288;28;20136;-57
2022/01/17 13:41:02;;;;;;;0.25;0.25;;;;;;;;;;5079414;28;20028;-57
2022/01/17 13:43:28;;;;;;;0.00;0.00;;;;;;;;;;5075377;28;20028;-56
2022/01/17 13:45:55;;;;;;;0.00;0.00;;;;;;;;;;5075148;28;20633;-56
2022/01/17 13:48:27;;;;;;;0.00;0.00;;;;;;;;;;5077308;28;20079;-57
2022/01/17 13:51:02;;;;;;;0.00;0.00;;;;;;;;;;5079992;28;20032;-56
2022/01/17 13:53:28;;;;;;;0.68;0.68;;;;;;;;;;5076143;28;20036;-58
2022/01/17 13:55:55;;;;;;;0.45;0.35;;;;;;;;;;5080620;28;20123;-56
2022/01/17 13:58:20;;;;;;;4.85;4.65;;;;;;;;;;5076172;28;20667;-57
2022/01/17 14:00:47;;;;;;;0.00;0.00;;;;;;;;;;5078912;28;20016;-57
2022/01/17 14:03:13;;;;;;;0.00;0.00;;;;;;;;;;5081442;28;20028;-57
2022/01/17 14:05:40;;;;;;;0.00;0.00;;;;;;;;;;5079400;28;20037;-58
2022/01/17 14:08:10;;;;;;;0.00;0.00;;;;;;;;;;5076015;28;20146;-58
2022/01/17 14:10:36;;;;;;;0.47;0.47;;;;;;;;;;5075533;28;20024;-57
2022/01/17 14:13:02;;;;;;;0.00;0.00;;;;;;;;;;5078915;28;20024;-57
2022/01/17 14:15:28;;;;;;;0.00;0.00;;;;;;;;;;5074927;28;20120;-57
2022/01/17 14:18:03;;;;;;;2.45;0.80;;;;;;;;;;5082021;28;20051;-57
2022/01/17 14:20:29;;;;;;;0.52;0.52;;;;;;;;;;5081869;28;20027;-57
2022/01/17 14:22:54;;;;;;;1.98;1.33;;;;;;;;;;5079925;28;20016;-57
2022/01/17 14:25:21;;;;;;;0.52;0.52;;;;;;;;;;5077162;28;20104;-57
2022/01/17 14:27:59;;;;;;;1.17;1.15;;;;;;;;;;5079597;28;20024;-57
2022/01/17 14:30:28;;;;;;;0.00;0.00;;;;;;;;;;5082848;28;20017;-58
2022/01/17 14:33:13;;;;;;;0.00;0.00;;;;;;;;;;5084163;28;20027;-57
2022/01/17 14:35:38;;;;;;;0.35;0.35;;;;;;;;;;5080437;28;20111;-57
2022/01/17 14:38:03;;;;;;;0.00;0.00;;;;;;;;;;5077871;28;20112;-57
2022/01/17 14:40:32;;;;;;;0.32;0.10;;;;;;;;;;5082122;28;20040;-58
2022/01/17 14:43:09;;;;;;;0.80;0.80;;;;;;;;;;5084736;28;20365;-58
2022/01/17 14:45:35;;;;;;;0.00;0.00;;;;;;;;;;5078350;28;20230;-57
2022/01/17 14:48:00;;;;;;;1.92;1.17;;;;;;;;;;5082180;28;20111;-58
2022/01/17 14:50:27;;;;;;;0.00;0.00;;;;;;;;;;5078027;28;20036;-58
2022/01/17 14:52:53;;;;;;;1.95;1.08;;;;;;;;;;5083099;28;20487;-57
2022/01/17 15:00:51;;;;;;;0.10;0.05;;;;;;;;;;5074569;28;20027;-57
2022/01/17 15:03:25;;;;;;;0.00;0.00;;;;;;;;;;5079946;28;20222;-58
2022/01/17 15:05:50;;;;;;;1.17;0.65;;;;;;;;;;5078617;28;20017;-56
2022/01/17 15:08:16;;;;;;;0.00;0.00;;;;;;;;;;5082599;28;20497;-56
2022/01/17 15:10:42;;;;;;;0.00;0.00;;;;;;;;;;5079105;28;20364;-57
2022/01/17 15:13:08;;;;;;;0.20;0.20;;;;;;;;;;5082730;28;20024;-56
2022/01/17 15:15:34;;;;;;;0.00;0.00;;;;;;;;;;5082209;28;20368;-57